Aérodrome :
LOGIN :

S'inscrire | Disclaimer

   EN    FR    IT 

 










Légende :    VFR   VFR Marginal   IFR   IFR Intensif   IFR Très Intensif
Visi : 
Plafond : 
>= 8 km
>= 3000ft
5 à 8 km
1000 à 3000 ft
1500m à 5 km
500 à 1000 ft
800 à 1500m
200 à 500 ft
< 800m
< 200 ft
Symboles :   Orages  Brouillard  Fortes neiges  Fortes précipitations  Vent > 20 kt
SIGMETs :   Divers  Orages  Givrage  Turbulence  Onde Orograph.  Cendres Volcan.







- Altitude de l'aérodrome : 19 ft
- Code IATA : LCY
- Voir les cartes d'approche


EGLC - London City

DERNIER METAR :
  • 222020Z AUTO 21007G21KT 150V250 9999 NCD 15/10 Q1022

METARs EXPIRÉS :
  • 221950Z AUTO 21007KT 180V260 9999 NCD 15/10 Q1022
  • 221920Z AUTO 20008KT 100V260 9999 NCD 16/10 Q1022
  • 221850Z AUTO 21007G18KT 190V310 9999 NCD 16/10 Q1022
  • 221820Z AUTO 20007G18KT 070V240 9999 NCD 17/09 Q1022
  • 221750Z AUTO 21009KT 180V250 9999 NCD 17/09 Q1021

TAF TAF EGLC
Valide du 22 à 18h jusqu'au 22 à 21h UTC


221655Z 2218/2221 21008KT 9999 SCT040
PROB30
TEMPO 2219/2221 8000 -RA
ATIS : +44 20 7646 0224
Pas de NOTAMs connus pour ce terrain.



MET'MAP, la Météo Aéronautique d'un coup d'oeil ! - Copyright ORBIFLY Décembre 2007 - Disclaimer

ORBIFLY MET'MAP TEAM :

Programmation & Développement : Alexandra Zaïnal
Conception & Développement : Baudouin d'Aumeries
Co-Programmation & Développement : Marc-Olivier Méhu
Soutien technique & logistique : Manuel Goepfert

Contact : metmap@orbifly.com




SOURCES & CREDITS :

   NOAA